createdAt,value
2023-03-01T00:01:52.134Z,101003.65
2023-03-01T00:04:20.655Z,101003.54
2023-03-01T00:06:49.429Z,101002.44
2023-03-01T00:09:18.529Z,101001.02
2023-03-01T00:11:47.643Z,101000.60
2023-03-01T00:14:18.676Z,101000.02
2023-03-01T00:16:47.658Z,100998.87
2023-03-01T00:19:20.894Z,100997.88
2023-03-01T00:21:49.760Z,100996.55
2023-03-01T00:24:18.211Z,100988.87
2023-03-01T00:26:47.767Z,100992.21
2023-03-01T00:29:16.404Z,100983.81
2023-03-01T00:31:44.886Z,100984.52
2023-03-01T00:34:13.577Z,100985.95
2023-03-01T00:36:42.253Z,100987.67
2023-03-01T00:39:16.461Z,100984.20
2023-03-01T00:41:45.773Z,100985.48
2023-03-01T00:44:14.455Z,100980.63
2023-03-01T00:46:42.915Z,100979.40
2023-03-01T00:49:11.959Z,100980.27
2023-03-01T00:51:42.643Z,100976.48
2023-03-01T00:54:11.359Z,100973.13
2023-03-01T00:56:39.972Z,100970.08
2023-03-01T00:59:08.723Z,100967.05
2023-03-01T01:01:37.619Z,100963.80
2023-03-01T01:04:11.010Z,100957.39
2023-03-01T01:06:46.410Z,100950.16
2023-03-01T01:09:18.872Z,100942.16
2023-03-01T01:11:52.359Z,100936.92
2023-03-01T01:14:21.743Z,100937.41
2023-03-01T01:16:50.918Z,100934.77
2023-03-01T01:19:19.713Z,100933.92
2023-03-01T01:21:49.778Z,100934.18
2023-03-01T01:24:19.437Z,100931.72
2023-03-01T01:26:48.249Z,100931.10
2023-03-01T01:29:17.247Z,100925.36
2023-03-01T01:31:45.810Z,100923.02
2023-03-01T01:34:20.897Z,100917.45
2023-03-01T01:36:57.327Z,100918.89
2023-03-01T01:39:26.028Z,100918.05
2023-03-01T01:41:54.905Z,100918.59
2023-03-01T01:44:28.105Z,100917.51
2023-03-01T01:47:21.714Z,100908.54
2023-03-01T01:49:57.803Z,100902.45
2023-03-01T01:52:35.268Z,100900.84
2023-03-01T01:55:10.456Z,100892.02
2023-03-01T01:57:44.446Z,100890.35
2023-03-01T02:00:27.023Z,100888.89
2023-03-01T02:03:09.389Z,100889.27
2023-03-01T02:05:44.564Z,100876.20
2023-03-01T02:08:16.010Z,100875.55
2023-03-01T02:10:46.501Z,100874.25
2023-03-01T02:13:15.663Z,100871.18
2023-03-01T02:15:47.262Z,100869.04
2023-03-01T02:18:20.124Z,100867.88
2023-03-01T02:21:27.422Z,100865.18
2023-03-01T02:23:57.215Z,100865.70
2023-03-01T02:26:36.240Z,100865.02
2023-03-01T02:29:06.861Z,100867.13
2023-03-01T02:31:44.573Z,100859.20
2023-03-01T02:34:22.126Z,100859.32
2023-03-01T02:37:00.985Z,100855.48
2023-03-01T02:39:38.298Z,100860.80
2023-03-01T02:42:07.571Z,100861.88
2023-03-01T02:44:36.156Z,100863.42
2023-03-01T02:47:05.752Z,100863.96
2023-03-01T02:49:37.621Z,100864.98
2023-03-01T02:52:49.008Z,100861.52
2023-03-01T02:55:19.357Z,100860.13
2023-03-01T02:57:52.559Z,100857.92
2023-03-01T03:00:27.662Z,100858.84
2023-03-01T03:02:58.355Z,100860.30
2023-03-01T03:05:32.812Z,100858.25
2023-03-01T03:08:04.399Z,100857.70
2023-03-01T03:10:40.855Z,100855.95
2023-03-01T03:13:14.087Z,100856.89
2023-03-01T03:15:44.484Z,100853.26
2023-03-01T03:18:17.432Z,100852.00
2023-03-01T03:20:46.973Z,100853.30
2023-03-01T03:23:15.673Z,100849.98
2023-03-01T03:25:44.321Z,100848.65
2023-03-01T03:28:12.887Z,100843.86
2023-03-01T03:30:43.104Z,100844.00
2023-03-01T03:33:13.940Z,100845.34
2023-03-01T03:35:48.861Z,100840.48
2023-03-01T03:38:23.193Z,100843.02
2023-03-01T03:41:06.633Z,100844.01
2023-03-01T03:43:39.550Z,100846.08
2023-03-01T03:46:08.811Z,100841.45
2023-03-01T03:48:43.754Z,100842.66
2023-03-01T03:51:18.219Z,100840.76
2023-03-01T03:53:47.237Z,100839.05
2023-03-01T03:56:16.053Z,100841.79
2023-03-01T03:58:44.673Z,100838.81
2023-03-01T04:01:13.157Z,100836.02
2023-03-01T04:03:42.926Z,100835.98
2023-03-01T04:06:11.466Z,100839.12
2023-03-01T04:08:40.633Z,100828.02
2023-03-01T04:11:27.936Z,100818.73
2023-03-01T04:14:00.292Z,100815.62
2023-03-01T04:16:29.314Z,100813.67
2023-03-01T04:19:01.007Z,100817.84
2023-03-01T04:21:29.734Z,100818.24
2023-03-01T04:23:58.316Z,100817.30
2023-03-01T04:26:28.313Z,100816.80
2023-03-01T04:28:56.813Z,100814.91
2023-03-01T04:31:25.518Z,100814.52
2023-03-01T04:33:58.041Z,100816.05
2023-03-01T04:36:31.146Z,100819.45
2023-03-01T04:39:00.163Z,100821.66
2023-03-01T04:41:28.860Z,100824.08
2023-03-01T04:43:57.218Z,100823.92
2023-03-01T04:46:26.802Z,100826.02
2023-03-01T04:48:55.413Z,100833.59
2023-03-01T04:51:24.008Z,100833.92
2023-03-01T04:53:52.712Z,100833.92
2023-03-01T04:56:21.366Z,100834.69
2023-03-01T04:58:50.502Z,100838.34
2023-03-01T05:01:21.450Z,100843.91
2023-03-01T05:03:53.085Z,100844.98
2023-03-01T05:06:22.528Z,100841.33
2023-03-01T05:08:51.013Z,100850.80
2023-03-01T05:11:19.643Z,100852.98
2023-03-01T05:13:48.255Z,100850.70
2023-03-01T05:16:51.214Z,100858.61
2023-03-01T05:19:24.007Z,100860.39
2023-03-01T05:22:07.697Z,100860.92
2023-03-01T05:24:36.858Z,100853.92
2023-03-01T05:27:06.184Z,100848.36
2023-03-01T05:29:36.125Z,100854.16
2023-03-01T05:32:05.086Z,100852.05
2023-03-01T05:34:37.249Z,100854.50
2023-03-01T05:37:06.436Z,100854.53
2023-03-01T05:39:35.151Z,100855.89
2023-03-01T05:42:03.701Z,100858.38
2023-03-01T05:44:32.702Z,100858.75
2023-03-01T05:47:01.593Z,100859.60
2023-03-01T05:49:30.022Z,100863.41
2023-03-01T05:51:58.478Z,100863.98
2023-03-01T05:54:26.976Z,100863.74
2023-03-01T05:56:55.454Z,100867.77
2023-03-01T05:59:27.083Z,100867.59
2023-03-01T06:01:55.609Z,100877.43
2023-03-01T06:04:24.117Z,100873.79
2023-03-01T06:06:55.483Z,100873.48
2023-03-01T06:09:24.398Z,100867.09
2023-03-01T06:11:53.024Z,100866.77
2023-03-01T06:14:22.860Z,100864.83
2023-03-01T06:16:51.739Z,100863.84
2023-03-01T06:19:20.338Z,100865.67
2023-03-01T06:21:55.072Z,100866.23
2023-03-01T06:24:24.528Z,100868.84
2023-03-01T06:26:54.432Z,100861.27
2023-03-01T06:29:24.213Z,100871.53
2023-03-01T06:31:52.738Z,100868.39
2023-03-01T06:34:22.912Z,100870.15
2023-03-01T06:36:51.863Z,100866.91
2023-03-01T06:39:20.455Z,100865.88
2023-03-01T06:41:49.646Z,100862.67
2023-03-01T06:44:20.858Z,100865.02
2023-03-01T06:46:49.501Z,100871.52
2023-03-01T06:49:19.036Z,100869.64
2023-03-01T06:51:48.061Z,100866.86
2023-03-01T06:54:16.998Z,100865.56
2023-03-01T06:56:48.544Z,100868.68
2023-03-01T06:59:18.900Z,100866.80
2023-03-01T07:01:47.538Z,100871.87
2023-03-01T07:04:16.080Z,100864.80
2023-03-01T07:06:44.765Z,100861.84
2023-03-01T07:09:13.376Z,100862.20
2023-03-01T07:11:42.526Z,100860.41
2023-03-01T07:14:11.100Z,100855.59
2023-03-01T07:16:39.630Z,100851.38
2023-03-01T07:19:08.624Z,100846.41
2023-03-01T07:21:40.094Z,100856.19
2023-03-01T07:24:09.558Z,100857.55
2023-03-01T07:26:44.260Z,100857.27
2023-03-01T07:29:13.544Z,100858.02
2023-03-01T07:31:43.514Z,100850.09
2023-03-01T07:34:12.121Z,100845.13
2023-03-01T07:36:44.242Z,100851.48
2023-03-01T07:39:13.184Z,100845.13
2023-03-01T07:41:42.099Z,100839.99
2023-03-01T07:44:11.145Z,100839.11
2023-03-01T07:46:39.734Z,100838.59
2023-03-01T07:49:11.226Z,100846.22
2023-03-01T07:51:39.794Z,100844.42
2023-03-01T07:54:08.947Z,100840.77
2023-03-01T07:56:38.042Z,100841.67
2023-03-01T07:59:06.766Z,100846.02
2023-03-01T08:01:36.852Z,100847.68
2023-03-01T08:04:09.297Z,100843.30
2023-03-01T08:06:38.457Z,100837.73
2023-03-01T08:09:07.913Z,100819.63
2023-03-01T08:11:36.591Z,100826.31
2023-03-01T08:14:05.141Z,100818.56
2023-03-01T08:16:36.611Z,100829.73
2023-03-01T08:19:16.537Z,100821.67
2023-03-01T08:21:45.520Z,100816.29
2023-03-01T08:24:14.179Z,100805.78
2023-03-01T08:26:45.647Z,100806.89
2023-03-01T08:29:15.344Z,100802.91
2023-03-01T08:31:44.234Z,100793.88
2023-03-01T08:34:17.056Z,100795.41
2023-03-01T08:36:48.702Z,100795.35
2023-03-01T08:39:20.467Z,100799.30
2023-03-01T08:41:49.549Z,100785.04
2023-03-01T08:44:18.236Z,100788.48
2023-03-01T08:46:47.275Z,100783.29
2023-03-01T08:49:20.016Z,100786.65
2023-03-01T08:51:49.800Z,100786.06
2023-03-01T08:54:21.207Z,100785.20
2023-03-01T08:56:51.241Z,100777.95
2023-03-01T08:59:20.784Z,100770.59
2023-03-01T09:01:49.605Z,100769.38
2023-03-01T09:04:18.259Z,100765.77
2023-03-01T09:06:47.197Z,100763.67
2023-03-01T09:09:18.642Z,100769.04
2023-03-01T09:11:48.585Z,100766.34
2023-03-01T09:14:17.408Z,100762.95
2023-03-01T09:16:46.474Z,100768.63
2023-03-01T09:19:15.792Z,100764.80
2023-03-01T09:21:53.612Z,100764.77
2023-03-01T09:24:24.840Z,100761.66
2023-03-01T09:26:57.766Z,100760.59
2023-03-01T09:29:27.594Z,100759.25
2023-03-01T09:31:56.624Z,100755.83
2023-03-01T09:34:25.635Z,100751.98
2023-03-01T09:36:54.484Z,100753.57
2023-03-01T09:39:23.094Z,100746.64
2023-03-01T09:42:06.499Z,100751.17
2023-03-01T09:45:13.294Z,100753.67
2023-03-01T09:47:45.674Z,100763.23
2023-03-01T09:50:18.237Z,100761.14
2023-03-01T09:53:12.794Z,100755.82
2023-03-01T09:56:20.528Z,100753.18
2023-03-01T09:59:12.073Z,100749.34
2023-03-01T10:02:16.228Z,100749.80
2023-03-01T10:04:55.497Z,100750.98
2023-03-01T10:07:29.354Z,100745.64
2023-03-01T10:09:58.858Z,100744.98
2023-03-01T10:12:44.197Z,100738.91
2023-03-01T10:15:31.671Z,100738.75
2023-03-01T10:18:18.621Z,100743.63
2023-03-01T10:21:07.268Z,100735.91
2023-03-01T10:23:37.719Z,100739.92
2023-03-01T10:26:40.941Z,100736.11
2023-03-01T10:29:17.050Z,100731.95
2023-03-01T10:31:52.173Z,100738.47
2023-03-01T10:34:35.927Z,100733.64
2023-03-01T10:37:22.859Z,100732.20
2023-03-01T10:40:02.060Z,100728.67
2023-03-01T10:42:35.570Z,100735.23
2023-03-01T10:45:34.179Z,100733.17
2023-03-01T10:48:25.783Z,100723.73
2023-03-01T10:51:00.132Z,100716.95
2023-03-01T10:53:42.958Z,100708.30
2023-03-01T10:56:16.056Z,100714.89
2023-03-01T10:59:07.374Z,100704.77
2023-03-01T11:01:37.363Z,100702.77
2023-03-01T11:04:10.233Z,100688.64
2023-03-01T11:06:42.270Z,100698.57
2023-03-01T11:09:24.440Z,100690.25
2023-03-01T11:11:55.331Z,100687.02
2023-03-01T11:14:37.883Z,100692.31
2023-03-01T11:17:27.163Z,100691.98
2023-03-01T11:20:36.150Z,100691.20
2023-03-01T11:23:12.262Z,100687.85
2023-03-01T11:25:47.383Z,100685.68
2023-03-01T11:28:19.770Z,100687.33
2023-03-01T11:31:08.281Z,100686.26
2023-03-01T11:33:46.607Z,100686.73
2023-03-01T11:36:39.521Z,100687.23
2023-03-01T11:39:48.628Z,100685.80
2023-03-01T11:42:26.733Z,100681.48
2023-03-01T11:45:01.323Z,100683.71
2023-03-01T11:47:39.001Z,100677.26
2023-03-01T11:51:09.901Z,100666.20
2023-03-01T11:53:54.510Z,100670.34
2023-03-01T11:57:01.841Z,100667.84
2023-03-01T12:00:02.023Z,100665.39
2023-03-01T12:02:38.749Z,100657.13
2023-03-01T12:05:27.614Z,100651.80
2023-03-01T12:08:25.567Z,100648.88
2023-03-01T12:11:22.552Z,100650.22
2023-03-01T12:14:08.170Z,100647.81
2023-03-01T12:16:58.520Z,100642.47
2023-03-01T12:19:45.440Z,100625.60
2023-03-01T12:22:30.516Z,100634.31
2023-03-01T12:25:23.427Z,100636.46
2023-03-01T12:28:16.330Z,100628.23
2023-03-01T12:31:16.351Z,100630.71
2023-03-01T12:34:23.556Z,100630.14
2023-03-01T12:37:18.486Z,100634.64
2023-03-01T12:40:15.417Z,100634.55
2023-03-01T12:43:37.454Z,100643.70
2023-03-01T12:46:26.869Z,100631.05
2023-03-01T12:49:14.370Z,100627.33
2023-03-01T12:51:56.865Z,100632.20
2023-03-01T12:54:36.809Z,100629.55
2023-03-01T12:57:20.497Z,100628.77
2023-03-01T13:00:19.106Z,100626.73
2023-03-01T13:02:54.715Z,100614.82
2023-03-01T13:05:41.425Z,100621.45
2023-03-01T13:08:29.562Z,100610.56
2023-03-01T13:11:05.219Z,100610.07
2023-03-01T13:13:33.987Z,100609.80
2023-03-01T13:16:46.628Z,100608.27
2023-03-01T13:19:23.608Z,100609.13
2023-03-01T13:21:55.886Z,100605.17
2023-03-01T13:24:43.698Z,100608.70
2023-03-01T13:27:26.430Z,100612.23
2023-03-01T13:30:01.021Z,100609.63
2023-03-01T13:33:04.509Z,100612.69
2023-03-01T13:35:46.184Z,100612.04
2023-03-01T13:38:43.757Z,100618.95
2023-03-01T13:41:37.985Z,100608.90
2023-03-01T13:44:33.627Z,100620.45
2023-03-01T13:47:08.429Z,100607.50
2023-03-01T13:50:04.124Z,100618.29
2023-03-01T13:52:47.868Z,100615.89
2023-03-01T13:55:17.953Z,100597.58
2023-03-01T13:57:56.882Z,100602.24
2023-03-01T14:00:38.322Z,100601.84
2023-03-01T14:03:12.922Z,100609.89
2023-03-01T14:06:11.167Z,100600.47
2023-03-01T14:08:43.256Z,100596.20
2023-03-01T14:11:27.908Z,100591.04
2023-03-01T14:14:19.039Z,100588.58
2023-03-01T14:17:23.533Z,100597.02
2023-03-01T14:20:05.639Z,100591.20
2023-03-01T14:22:36.856Z,100594.34
2023-03-01T14:25:18.493Z,100595.47
2023-03-01T14:28:02.929Z,100589.63
2023-03-01T14:30:42.749Z,100593.56
2023-03-01T14:33:34.660Z,100593.84
2023-03-01T14:36:11.708Z,100591.44
2023-03-01T14:38:48.065Z,100579.74
2023-03-01T14:41:21.286Z,100590.50
2023-03-01T14:43:54.646Z,100591.03
2023-03-01T14:46:42.546Z,100580.70
2023-03-01T14:49:22.048Z,100578.77
2023-03-01T14:52:05.630Z,100577.70
2023-03-01T14:54:48.742Z,100578.48
2023-03-01T14:57:23.072Z,100578.61
2023-03-01T14:59:55.742Z,100574.92
2023-03-01T15:02:27.574Z,100578.89
2023-03-01T15:04:59.420Z,100576.40
2023-03-01T15:07:36.721Z,100580.71
2023-03-01T15:10:08.112Z,100575.64
2023-03-01T15:12:42.333Z,100576.90
2023-03-01T15:15:34.662Z,100571.03
2023-03-01T15:18:28.947Z,100571.56
2023-03-01T15:21:07.794Z,100567.10
2023-03-01T15:23:39.582Z,100568.98
2023-03-01T15:26:24.113Z,100565.80
2023-03-01T15:28:59.272Z,100562.08
2023-03-01T15:31:39.742Z,100553.88
2023-03-01T15:34:33.443Z,100553.44
2023-03-01T15:37:06.749Z,100552.44
2023-03-01T15:39:53.758Z,100550.52
2023-03-01T15:42:28.463Z,100555.54
2023-03-01T15:45:28.311Z,100555.92
2023-03-01T15:48:02.973Z,100555.89
2023-03-01T15:50:40.812Z,100551.34
2023-03-01T15:53:15.630Z,100555.58
2023-03-01T15:55:45.121Z,100563.87
2023-03-01T15:58:22.399Z,100565.34
2023-03-01T16:01:01.971Z,100561.89
2023-03-01T16:03:30.999Z,100565.20
2023-03-01T16:05:59.794Z,100563.40
2023-03-01T16:08:28.498Z,100566.16
2023-03-01T16:10:57.385Z,100570.33
2023-03-01T16:13:28.335Z,100573.17
2023-03-01T16:15:57.810Z,100575.87
2023-03-01T16:18:26.553Z,100580.70
2023-03-01T16:20:55.711Z,100581.52
2023-03-01T16:23:26.169Z,100582.23
2023-03-01T16:25:54.788Z,100581.73
2023-03-01T16:28:23.444Z,100582.03
2023-03-01T16:30:51.974Z,100579.81
2023-03-01T16:33:28.292Z,100575.54
2023-03-01T16:36:13.293Z,100577.60
2023-03-01T16:38:41.835Z,100583.59
2023-03-01T16:41:16.934Z,100591.67
2023-03-01T16:43:47.973Z,100593.94
2023-03-01T16:46:23.887Z,100603.02
2023-03-01T16:48:53.173Z,100597.73
2023-03-01T16:51:22.725Z,100596.92
2023-03-01T16:53:52.430Z,100601.57
2023-03-01T16:56:21.220Z,100608.94
2023-03-01T16:58:49.844Z,100612.88
2023-03-01T17:01:24.674Z,100614.85
2023-03-01T17:03:53.854Z,100615.31
2023-03-01T17:06:24.508Z,100621.88
2023-03-01T17:08:53.562Z,100623.02
2023-03-01T17:11:23.399Z,100621.77
2023-03-01T17:13:53.066Z,100620.45
2023-03-01T17:16:22.297Z,100619.19
2023-03-01T17:18:50.949Z,100620.05
2023-03-01T17:21:22.611Z,100615.05
2023-03-01T17:23:56.835Z,100609.36
2023-03-01T17:26:27.798Z,100607.80
2023-03-01T17:28:59.410Z,100606.27
2023-03-01T17:31:28.361Z,100612.02
2023-03-01T17:33:59.818Z,100611.39
2023-03-01T17:36:29.825Z,100613.60
2023-03-01T17:38:58.412Z,100610.81
2023-03-01T17:41:27.357Z,100607.97
2023-03-01T17:43:55.839Z,100613.95
2023-03-01T17:46:24.950Z,100616.77
2023-03-01T17:48:57.030Z,100613.01
2023-03-01T17:51:25.600Z,100614.39
2023-03-01T17:53:54.475Z,100612.10
2023-03-01T17:56:23.021Z,100616.84
2023-03-01T17:58:52.032Z,100617.23
2023-03-01T18:01:22.140Z,100618.60
2023-03-01T18:03:53.383Z,100621.29
2023-03-01T18:06:25.254Z,100620.92
2023-03-01T18:08:55.430Z,100613.99
2023-03-01T18:11:25.955Z,100611.05
2023-03-01T18:13:55.842Z,100615.55
2023-03-01T18:16:24.791Z,100613.95
2023-03-01T18:18:57.881Z,100613.31
2023-03-01T18:21:26.522Z,100609.56
2023-03-01T18:23:55.328Z,100610.83
2023-03-01T18:26:25.344Z,100617.33
2023-03-01T18:28:54.551Z,100623.30
2023-03-01T18:31:23.060Z,100622.89
2023-03-01T18:33:57.595Z,100617.02
2023-03-01T18:36:29.779Z,100621.88
2023-03-01T18:38:59.083Z,100621.45
2023-03-01T18:41:29.284Z,100621.31
2023-03-01T18:43:58.741Z,100623.86
2023-03-01T18:46:27.364Z,100623.06
2023-03-01T18:48:56.144Z,100624.56
2023-03-01T18:51:28.026Z,100617.10
2023-03-01T18:54:01.368Z,100625.45
2023-03-01T18:56:34.375Z,100629.95
2023-03-01T18:59:04.350Z,100632.19
2023-03-01T19:01:36.685Z,100629.13
2023-03-01T19:04:06.033Z,100624.05
2023-03-01T19:06:35.590Z,100624.09
2023-03-01T19:09:05.195Z,100626.16
2023-03-01T19:11:35.766Z,100626.90
2023-03-01T19:14:05.133Z,100629.80
2023-03-01T19:16:34.582Z,100633.55
2023-03-01T19:19:05.492Z,100629.63
2023-03-01T19:21:34.598Z,100635.73
2023-03-01T19:24:03.362Z,100632.31
2023-03-01T19:26:33.173Z,100633.20
2023-03-01T19:29:03.764Z,100636.74
2023-03-01T19:31:32.670Z,100633.45
2023-03-01T19:34:11.853Z,100631.27
2023-03-01T19:36:43.264Z,100633.98
2023-03-01T19:39:14.041Z,100639.59
2023-03-01T19:41:44.125Z,100635.98
2023-03-01T19:44:13.377Z,100634.70
2023-03-01T19:46:42.623Z,100635.82
2023-03-01T19:49:11.162Z,100634.30
2023-03-01T19:51:39.778Z,100635.74
2023-03-01T19:54:10.044Z,100634.72
2023-03-01T19:56:39.189Z,100635.25
2023-03-01T19:59:07.907Z,100631.48
2023-03-01T20:01:38.047Z,100638.33
2023-03-01T20:04:06.957Z,100635.02
2023-03-01T20:06:37.460Z,100637.98
2023-03-01T20:09:20.442Z,100634.06
2023-03-01T20:11:51.967Z,100635.19
2023-03-01T20:14:23.533Z,100631.92
2023-03-01T20:16:53.223Z,100627.50
2023-03-01T20:19:22.116Z,100630.94
2023-03-01T20:21:50.781Z,100632.66
2023-03-01T20:24:19.409Z,100632.52
2023-03-01T20:26:47.978Z,100629.39
2023-03-01T20:29:16.564Z,100628.83
2023-03-01T20:31:48.887Z,100628.73
2023-03-01T20:34:25.593Z,100620.92
2023-03-01T20:36:54.712Z,100621.27
2023-03-01T20:39:23.269Z,100622.77
2023-03-01T20:41:51.785Z,100615.94
2023-03-01T20:44:20.339Z,100619.67
2023-03-01T20:46:49.848Z,100623.39
2023-03-01T20:49:18.342Z,100624.70
2023-03-01T20:51:47.012Z,100620.55
2023-03-01T20:54:15.773Z,100621.10
2023-03-01T20:56:44.437Z,100624.67
2023-03-01T20:59:13.225Z,100626.67
2023-03-01T21:01:47.513Z,100625.48
2023-03-01T21:04:18.166Z,100627.71
2023-03-01T21:06:46.816Z,100629.38
2023-03-01T21:09:15.315Z,100630.64
2023-03-01T21:11:44.048Z,100633.01
2023-03-01T21:14:12.826Z,100634.41
2023-03-01T21:16:41.311Z,100631.69
2023-03-01T21:19:09.936Z,100633.20
2023-03-01T21:21:38.615Z,100625.80
2023-03-01T21:24:10.634Z,100631.21
2023-03-01T21:26:39.467Z,100627.23
2023-03-01T21:29:07.982Z,100627.71
2023-03-01T21:31:36.589Z,100630.70
2023-03-01T21:34:06.688Z,100627.40
2023-03-01T21:36:36.382Z,100631.66
2023-03-01T21:39:06.840Z,100628.56
2023-03-01T21:41:37.913Z,100621.30
2023-03-01T21:44:07.730Z,100618.92
2023-03-01T21:46:39.859Z,100620.65
2023-03-01T21:49:11.007Z,100627.23
2023-03-01T21:51:39.665Z,100630.10
2023-03-01T21:54:08.393Z,100630.33
2023-03-01T21:56:39.383Z,100629.66
2023-03-01T21:59:15.464Z,100624.34
2023-03-01T22:01:44.814Z,100612.06
2023-03-01T22:04:14.445Z,100626.04
2023-03-01T22:06:44.888Z,100630.96
2023-03-01T22:09:20.582Z,100635.66
2023-03-01T22:11:54.160Z,100643.64
2023-03-01T22:14:22.713Z,100637.31
2023-03-01T22:16:51.879Z,100639.41
2023-03-01T22:19:21.169Z,100630.58
2023-03-01T22:21:52.776Z,100638.44
2023-03-01T22:24:25.562Z,100635.04
2023-03-01T22:26:54.882Z,100643.07
2023-03-01T22:29:29.144Z,100642.70
2023-03-01T22:31:58.943Z,100644.90
2023-03-01T22:34:28.173Z,100641.54
2023-03-01T22:36:56.985Z,100643.70
2023-03-01T22:39:25.471Z,100642.58
2023-03-01T22:41:55.074Z,100641.34
2023-03-01T22:44:24.679Z,100635.10
2023-03-01T22:46:53.276Z,100637.77
2023-03-01T22:49:22.176Z,100636.05
2023-03-01T22:51:51.678Z,100638.49
2023-03-01T22:54:20.725Z,100637.33
2023-03-01T22:56:50.598Z,100636.04
2023-03-01T22:59:25.201Z,100643.19
2023-03-01T23:01:55.024Z,100640.83
2023-03-01T23:04:24.507Z,100636.77
2023-03-01T23:06:55.915Z,100638.98
2023-03-01T23:09:34.507Z,100638.59
2023-03-01T23:12:06.956Z,100631.80
2023-03-01T23:14:36.464Z,100635.59
2023-03-01T23:17:05.668Z,100638.90
2023-03-01T23:19:34.546Z,100639.67
2023-03-01T23:22:08.070Z,100642.06
2023-03-01T23:24:39.048Z,100645.71
2023-03-01T23:27:07.799Z,100639.30
2023-03-01T23:29:36.824Z,100640.83
2023-03-01T23:32:05.382Z,100639.98
2023-03-01T23:34:34.392Z,100645.55
2023-03-01T23:37:04.028Z,100646.95
2023-03-01T23:39:32.830Z,100643.81
2023-03-01T23:42:01.284Z,100642.33
2023-03-01T23:44:29.801Z,100643.84
2023-03-01T23:46:58.471Z,100641.34
2023-03-01T23:49:28.182Z,100645.34
2023-03-01T23:51:57.012Z,100645.73
2023-03-01T23:54:26.086Z,100646.85
2023-03-01T23:56:54.623Z,100644.30
2023-03-01T23:59:24.511Z,100643.31
